sensor_id;sensor_type;location;lat;lon;timestamp;P1;durP1;ratioP1;P2;durP2;ratioP2
49556;SDS011;35462;45.048;7.666;2022-09-17T00:09:03;1.37;;;0.90;;
49556;SDS011;35462;45.048;7.666;2022-09-17T00:24:20;4.22;;;1.17;;
49556;SDS011;35462;45.048;7.666;2022-09-17T00:39:37;3.43;;;0.93;;
49556;SDS011;35462;45.048;7.666;2022-09-17T00:54:56;3.00;;;1.15;;
49556;SDS011;35462;45.048;7.666;2022-09-17T01:41:41;1.80;;;0.85;;
49556;SDS011;35462;45.048;7.666;2022-09-17T01:57:16;2.95;;;0.50;;
49556;SDS011;35462;45.048;7.666;2022-09-17T02:12:42;0.75;;;0.38;;
49556;SDS011;35462;45.048;7.666;2022-09-17T02:28:06;0.85;;;0.55;;
49556;SDS011;35462;45.048;7.666;2022-09-17T02:43:31;1.05;;;0.43;;
49556;SDS011;35462;45.048;7.666;2022-09-17T02:59:01;3.13;;;0.32;;
49556;SDS011;35462;45.048;7.666;2022-09-17T03:14:26;2.63;;;1.10;;
49556;SDS011;35462;45.048;7.666;2022-09-17T03:29:42;11.77;;;1.58;;
49556;SDS011;35462;45.048;7.666;2022-09-17T03:44:58;13.10;;;2.30;;
49556;SDS011;35462;45.048;7.666;2022-09-17T04:00:14;9.52;;;1.17;;
49556;SDS011;35462;45.048;7.666;2022-09-17T04:15:31;16.30;;;1.37;;
49556;SDS011;35462;45.048;7.666;2022-09-17T04:30:47;9.57;;;1.27;;
49556;SDS011;35462;45.048;7.666;2022-09-17T04:46:03;7.55;;;0.82;;
49556;SDS011;35462;45.048;7.666;2022-09-17T05:01:20;4.53;;;0.57;;
49556;SDS011;35462;45.048;7.666;2022-09-17T05:16:35;0.95;;;0.40;;
49556;SDS011;35462;45.048;7.666;2022-09-17T05:31:51;1.63;;;0.30;;
49556;SDS011;35462;45.048;7.666;2022-09-17T05:47:07;4.32;;;0.40;;
49556;SDS011;35462;45.048;7.666;2022-09-17T06:02:23;1.65;;;0.40;;
49556;SDS011;35462;45.048;7.666;2022-09-17T06:17:39;1.63;;;0.47;;
49556;SDS011;35462;45.048;7.666;2022-09-17T06:32:55;2.58;;;0.30;;
49556;SDS011;35462;45.048;7.666;2022-09-17T06:48:13;0.57;;;0.20;;
49556;SDS011;35462;45.048;7.666;2022-09-17T07:03:29;5.13;;;0.50;;
49556;SDS011;35462;45.048;7.666;2022-09-17T07:18:45;3.38;;;0.20;;
49556;SDS011;35462;45.048;7.666;2022-09-17T07:34:01;0.22;;;0.10;;
49556;SDS011;35462;45.048;7.666;2022-09-17T07:49:18;1.20;;;0.87;;
49556;SDS011;35462;45.048;7.666;2022-09-17T08:04:34;1.47;;;0.67;;
49556;SDS011;35462;45.048;7.666;2022-09-17T08:19:49;4.53;;;0.30;;
49556;SDS011;35462;45.048;7.666;2022-09-17T08:35:05;2.00;;;0.40;;
49556;SDS011;35462;45.048;7.666;2022-09-17T09:05:57;1.05;;;0.13;;
49556;SDS011;35462;45.048;7.666;2022-09-17T09:21:19;0.22;;;0.10;;
49556;SDS011;35462;45.048;7.666;2022-09-17T09:36:57;2.38;;;0.73;;
49556;SDS011;35462;45.048;7.666;2022-09-17T10:08:10;0.95;;;0.28;;
49556;SDS011;35462;45.048;7.666;2022-09-17T10:23:27;1.20;;;0.17;;
49556;SDS011;35462;45.048;7.666;2022-09-17T10:38:46;1.33;;;0.50;;
49556;SDS011;35462;45.048;7.666;2022-09-17T11:25:07;0.68;;;0.20;;
49556;SDS011;35462;45.048;7.666;2022-09-17T11:56:00;1.75;;;0.22;;
49556;SDS011;35462;45.048;7.666;2022-09-17T12:11:29;0.30;;;0.20;;
49556;SDS011;35462;45.048;7.666;2022-09-17T13:13:28;2.03;;;0.55;;
49556;SDS011;35462;45.048;7.666;2022-09-17T13:29:02;3.00;;;0.75;;
49556;SDS011;35462;45.048;7.666;2022-09-17T13:44:19;3.53;;;0.70;;
49556;SDS011;35462;45.048;7.666;2022-09-17T13:59:37;1.55;;;0.30;;
49556;SDS011;35462;45.048;7.666;2022-09-17T14:30:51;0.90;;;0.20;;
49556;SDS011;35462;45.048;7.666;2022-09-17T14:46:08;0.80;;;0.30;;
49556;SDS011;35462;45.048;7.666;2022-09-17T15:01:33;0.95;;;0.40;;
49556;SDS011;35462;45.048;7.666;2022-09-17T15:16:50;2.17;;;0.20;;
49556;SDS011;35462;45.048;7.666;2022-09-17T15:32:10;3.30;;;0.25;;
49556;SDS011;35462;45.048;7.666;2022-09-17T16:03:14;0.22;;;0.10;;
49556;SDS011;35462;45.048;7.666;2022-09-17T16:18:55;0.43;;;0.25;;
49556;SDS011;35462;45.048;7.666;2022-09-17T16:34:11;1.25;;;0.22;;
49556;SDS011;35462;45.048;7.666;2022-09-17T16:49:28;3.90;;;0.97;;
49556;SDS011;35462;45.048;7.666;2022-09-17T17:04:44;0.50;;;0.20;;
49556;SDS011;35462;45.048;7.666;2022-09-17T17:20:02;1.15;;;0.30;;
49556;SDS011;35462;45.048;7.666;2022-09-17T17:35:23;1.60;;;0.75;;
49556;SDS011;35462;45.048;7.666;2022-09-17T17:50:40;2.17;;;0.30;;
49556;SDS011;35462;45.048;7.666;2022-09-17T18:05:57;0.50;;;0.20;;
49556;SDS011;35462;45.048;7.666;2022-09-17T18:21:13;2.03;;;0.25;;
49556;SDS011;35462;45.048;7.666;2022-09-17T18:36:31;2.80;;;0.80;;
49556;SDS011;35462;45.048;7.666;2022-09-17T18:51:48;1.63;;;0.40;;
49556;SDS011;35462;45.048;7.666;2022-09-17T19:07:05;6.18;;;3.17;;
49556;SDS011;35462;45.048;7.666;2022-09-17T19:22:21;2.13;;;0.47;;
49556;SDS011;35462;45.048;7.666;2022-09-17T19:37:38;2.92;;;0.90;;
49556;SDS011;35462;45.048;7.666;2022-09-17T19:52:53;4.32;;;0.93;;
49556;SDS011;35462;45.048;7.666;2022-09-17T20:08:10;2.60;;;1.30;;
49556;SDS011;35462;45.048;7.666;2022-09-17T20:23:29;1.67;;;0.82;;
49556;SDS011;35462;45.048;7.666;2022-09-17T20:38:46;2.30;;;0.95;;
49556;SDS011;35462;45.048;7.666;2022-09-17T20:54:02;3.08;;;1.38;;
49556;SDS011;35462;45.048;7.666;2022-09-17T21:09:19;3.92;;;1.60;;
49556;SDS011;35462;45.048;7.666;2022-09-17T21:24:35;3.83;;;1.55;;
49556;SDS011;35462;45.048;7.666;2022-09-17T21:39:51;2.85;;;1.10;;
49556;SDS011;35462;45.048;7.666;2022-09-17T21:55:07;1.90;;;1.13;;
49556;SDS011;35462;45.048;7.666;2022-09-17T22:10:26;3.80;;;1.13;;
49556;SDS011;35462;45.048;7.666;2022-09-17T22:25:41;0.93;;;0.60;;
49556;SDS011;35462;45.048;7.666;2022-09-17T22:41:01;0.35;;;0.20;;
49556;SDS011;35462;45.048;7.666;2022-09-17T22:56:20;1.35;;;0.63;;
49556;SDS011;35462;45.048;7.666;2022-09-17T23:11:37;0.97;;;0.30;;
49556;SDS011;35462;45.048;7.666;2022-09-17T23:26:55;0.60;;;0.10;;
49556;SDS011;35462;45.048;7.666;2022-09-17T23:42:11;0.22;;;0.15;;
49556;SDS011;35462;45.048;7.666;2022-09-17T23:57:27;1.45;;;0.52;;
